Terminal Aerodrome Forecast
Issued by NWS

Home | Current Version | Previous Version | Text Only | Print | Product List | Glossary On
Versions: 1 2 3 4 5 6 7 8 9 10 11 12 13 14 15 16 17 18 19 20 21 22 23
000
FTUS43 KMQT 210800 AAA
TAFSAW
TAF AMD
KSAW 210829Z 2108/2206 VRB03KT 1SM BR VV003
     FM211400 15003KT 2SM BR OVC003
     FM211600 14004KT 6SM BR OVC012
     FM211900 12008KT P6SM BKN040
     FM220400 14007KT 5SM BR OVC025
      AMD LTD TO CLD VIS AND WIND TIL 211000=

USA.gov is the U.S. government's official web portal to all federal, state and local government web resources and services.